createdAt,value
2022-08-07T00:02:39.803Z,30.90
2022-08-07T00:05:11.555Z,31.00
2022-08-07T00:07:43.729Z,31.30
2022-08-07T00:10:26.399Z,31.00
2022-08-07T00:13:17.624Z,31.00
2022-08-07T00:15:58.446Z,31.00
2022-08-07T00:18:32.169Z,31.00
2022-08-07T00:21:08.301Z,30.90
2022-08-07T00:24:17.136Z,30.90
2022-08-07T00:27:06.388Z,30.70
2022-08-07T00:29:41.340Z,30.80
2022-08-07T00:32:14.839Z,30.80
2022-08-07T00:34:50.635Z,30.60
2022-08-07T00:37:26.153Z,30.60
2022-08-07T00:40:02.192Z,30.40
2022-08-07T00:42:33.480Z,30.40
2022-08-07T00:45:16.285Z,30.30
2022-08-07T00:48:07.583Z,30.30
2022-08-07T00:50:51.587Z,30.20
2022-08-07T00:53:24.259Z,30.30
2022-08-07T00:56:03.003Z,30.20
2022-08-07T00:58:35.426Z,30.20
2022-08-07T01:01:08.679Z,30.10
2022-08-07T01:03:55.766Z,30.10
2022-08-07T01:06:31.742Z,30.10
2022-08-07T01:09:04.617Z,30.10
2022-08-07T01:12:09.745Z,30.40
2022-08-07T01:14:30.044Z,30.70
2022-08-07T01:17:07.219Z,31.10
2022-08-07T01:19:39.950Z,31.30
2022-08-07T01:22:22.781Z,31.20
2022-08-07T01:25:02.911Z,31.30
2022-08-07T01:27:53.817Z,31.30
2022-08-07T01:30:28.364Z,31.70
2022-08-07T01:33:00.621Z,32.00
2022-08-07T01:35:52.868Z,32.10
2022-08-07T01:38:29.186Z,32.20
2022-08-07T01:41:03.827Z,32.20
2022-08-07T01:43:38.491Z,32.30
2022-08-07T01:46:12.259Z,32.40
2022-08-07T01:48:46.753Z,32.20
2022-08-07T01:51:58.768Z,31.50
2022-08-07T01:54:21.950Z,31.10
2022-08-07T01:57:24.103Z,30.60
2022-08-07T02:00:13.466Z,30.10
2022-08-07T02:03:12.585Z,29.60
2022-08-07T02:05:48.526Z,29.20
2022-08-07T02:08:33.520Z,28.70
2022-08-07T02:11:10.920Z,28.40
2022-08-07T02:14:04.113Z,27.90
2022-08-07T02:16:35.838Z,27.60
2022-08-07T02:20:04.902Z,27.30
2022-08-07T02:22:07.889Z,27.10
2022-08-07T02:24:41.336Z,26.90
2022-08-07T02:27:20.758Z,26.70
2022-08-07T02:29:55.238Z,26.60
2022-08-07T02:32:30.150Z,26.50
2022-08-07T02:35:02.716Z,26.40
2022-08-07T02:37:44.366Z,26.20
2022-08-07T02:40:35.110Z,26.10
2022-08-07T02:43:11.438Z,25.90
2022-08-07T02:46:00.576Z,25.80
2022-08-07T02:48:34.679Z,25.60
2022-08-07T02:51:29.282Z,25.50
2022-08-07T02:54:03.827Z,25.40
2022-08-07T02:56:37.476Z,25.30
2022-08-07T02:59:16.369Z,25.20
2022-08-07T03:01:52.192Z,25.10
2022-08-07T03:04:36.580Z,25.00
2022-08-07T03:07:10.683Z,24.80
2022-08-07T03:09:44.414Z,24.70
2022-08-07T03:12:22.309Z,24.70
2022-08-07T03:15:07.778Z,24.50
2022-08-07T03:17:54.062Z,24.40
2022-08-07T03:20:26.783Z,24.20
2022-08-07T03:22:59.845Z,24.20
2022-08-07T03:25:40.331Z,24.10
2022-08-07T03:28:37.592Z,24.00
2022-08-07T03:31:26.284Z,23.90
2022-08-07T03:34:18.702Z,23.80
2022-08-07T03:36:57.467Z,23.70
2022-08-07T03:39:59.159Z,23.60
2022-08-07T03:42:23.787Z,23.50
2022-08-07T03:44:58.919Z,23.30
2022-08-07T03:47:47.658Z,23.20
2022-08-07T03:50:24.639Z,23.20
2022-08-07T03:53:01.939Z,23.00
2022-08-07T03:55:58.527Z,22.80
2022-08-07T03:59:05.757Z,22.70
2022-08-07T04:01:21.449Z,22.60
2022-08-07T04:03:57.306Z,22.40
2022-08-07T04:06:37.383Z,22.30
2022-08-07T04:09:15.687Z,22.20
2022-08-07T04:12:27.759Z,22.10
2022-08-07T04:14:46.038Z,22.10
2022-08-07T04:18:58.220Z,21.90
2022-08-07T04:20:17.771Z,21.80
2022-08-07T04:22:53.569Z,21.70
2022-08-07T04:25:39.008Z,21.60
2022-08-07T04:28:13.902Z,21.50
2022-08-07T04:31:06.349Z,21.50
2022-08-07T04:33:40.555Z,21.40
2022-08-07T04:36:14.836Z,21.30
2022-08-07T04:38:46.302Z,21.20
2022-08-07T04:41:19.132Z,21.10
2022-08-07T04:44:12.927Z,21.00
2022-08-07T04:47:04.400Z,21.00
2022-08-07T04:49:57.384Z,20.90
2022-08-07T04:52:46.845Z,20.90
2022-08-07T04:58:11.623Z,20.80
2022-08-07T04:58:49.780Z,20.70
2022-08-07T05:01:30.356Z,20.70
2022-08-07T05:04:12.512Z,20.60
2022-08-07T05:07:01.177Z,20.50
2022-08-07T05:10:11.762Z,20.40
2022-08-07T05:12:53.005Z,20.40
2022-08-07T05:15:32.248Z,20.30
2022-08-07T05:18:09.343Z,20.30
2022-08-07T05:20:45.627Z,20.20
2022-08-07T05:23:35.474Z,20.20
2022-08-07T05:26:18.846Z,20.10
2022-08-07T05:29:04.375Z,20.10
2022-08-07T05:31:39.612Z,20.00
2022-08-07T05:34:18.969Z,19.80
2022-08-07T05:36:53.817Z,19.80
2022-08-07T05:40:06.374Z,19.70
2022-08-07T05:42:34.747Z,19.70
2022-08-07T05:45:25.734Z,19.60
2022-08-07T05:48:02.649Z,19.50
2022-08-07T05:50:39.580Z,19.50
2022-08-07T05:54:13.677Z,19.40
2022-08-07T05:56:08.245Z,19.30
2022-08-07T05:58:52.585Z,19.30
2022-08-07T06:01:25.938Z,19.20
2022-08-07T06:04:01.483Z,19.20
2022-08-07T06:06:33.328Z,19.20
2022-08-07T06:09:05.357Z,19.10
2022-08-07T06:11:37.467Z,19.10
2022-08-07T06:14:21.008Z,19.00
2022-08-07T06:17:01.401Z,19.00
2022-08-07T06:19:57.745Z,18.90
2022-08-07T06:22:38.915Z,18.80
2022-08-07T06:25:12.399Z,18.80
2022-08-07T06:28:01.622Z,18.80
2022-08-07T06:30:41.433Z,18.70
2022-08-07T06:33:16.739Z,18.70
2022-08-07T06:36:12.020Z,18.70
2022-08-07T06:38:58.875Z,18.60
2022-08-07T06:42:01.252Z,18.60
2022-08-07T06:44:31.260Z,18.50
2022-08-07T06:47:12.028Z,18.50
2022-08-07T06:49:58.741Z,18.50
2022-08-07T06:52:35.711Z,18.40
2022-08-07T06:55:33.271Z,18.40
2022-08-07T06:58:10.198Z,18.40
2022-08-07T07:00:44.130Z,18.30
2022-08-07T07:03:17.765Z,18.40
2022-08-07T07:06:03.484Z,18.30
2022-08-07T07:08:39.821Z,18.30
2022-08-07T07:12:09.539Z,18.20
2022-08-07T07:14:10.531Z,18.20
2022-08-07T07:16:50.961Z,18.20
2022-08-07T07:19:55.852Z,18.20
2022-08-07T07:22:35.895Z,18.10
2022-08-07T07:26:35.031Z,18.10
2022-08-07T07:28:42.387Z,18.00
2022-08-07T07:31:08.018Z,18.00
2022-08-07T07:33:41.456Z,18.00
2022-08-07T07:36:17.207Z,17.90
2022-08-07T07:38:49.688Z,17.90
2022-08-07T07:41:30.945Z,17.90
2022-08-07T07:44:26.613Z,17.80
2022-08-07T07:47:12.120Z,17.80
2022-08-07T07:50:35.668Z,17.70
2022-08-07T07:52:47.678Z,17.70
2022-08-07T07:55:21.659Z,17.60
2022-08-07T07:57:58.227Z,17.60
2022-08-07T08:00:34.181Z,17.60
2022-08-07T08:03:16.544Z,17.60
2022-08-07T08:05:54.813Z,17.60
2022-08-07T08:08:37.011Z,17.60
2022-08-07T08:11:13.846Z,17.60
2022-08-07T08:13:55.645Z,17.50
2022-08-07T08:16:35.879Z,17.50
2022-08-07T08:19:09.712Z,17.40
2022-08-07T08:22:08.066Z,17.40
2022-08-07T08:25:18.198Z,17.40
2022-08-07T08:28:01.946Z,17.40
2022-08-07T08:30:37.608Z,17.30
2022-08-07T08:33:20.507Z,17.20
2022-08-07T08:35:56.955Z,17.10
2022-08-07T08:38:40.424Z,17.10
2022-08-07T08:41:26.323Z,17.10
2022-08-07T08:44:29.180Z,17.10
2022-08-07T08:47:19.131Z,17.00
2022-08-07T08:50:07.365Z,17.00
2022-08-07T08:52:51.501Z,16.90
2022-08-07T08:55:54.371Z,16.90
2022-08-07T08:58:35.666Z,16.80
2022-08-07T09:01:18.478Z,16.80
2022-08-07T09:04:02.666Z,16.80
2022-08-07T09:06:48.146Z,16.70
2022-08-07T09:09:56.669Z,16.70
2022-08-07T09:12:53.141Z,16.70
2022-08-07T09:16:22.612Z,16.70
2022-08-07T09:19:44.764Z,16.70
2022-08-07T09:22:40.014Z,16.70
2022-08-07T09:25:15.041Z,16.70
2022-08-07T09:28:02.053Z,16.70
2022-08-07T09:30:46.445Z,16.60
2022-08-07T09:33:57.227Z,16.60
2022-08-07T09:36:35.730Z,16.60
2022-08-07T09:39:54.533Z,16.60
2022-08-07T09:42:28.379Z,16.70
2022-08-07T09:47:24.819Z,16.60
2022-08-07T09:48:19.221Z,16.60
2022-08-07T09:51:26.026Z,16.60
2022-08-07T09:54:03.493Z,16.60
2022-08-07T09:57:02.186Z,16.70
2022-08-07T10:00:00.928Z,16.60
2022-08-07T10:03:08.357Z,16.60
2022-08-07T10:06:28.268Z,16.60
2022-08-07T10:09:42.599Z,16.60
2022-08-07T10:12:53.933Z,16.50
2022-08-07T10:15:44.944Z,16.50
2022-08-07T10:18:53.902Z,16.40
2022-08-07T10:22:12.313Z,16.40
2022-08-07T10:25:07.759Z,16.40
2022-08-07T10:28:06.799Z,16.30
2022-08-07T10:30:47.785Z,16.30
2022-08-07T10:34:06.332Z,16.30
2022-08-07T10:36:38.742Z,16.20
2022-08-07T10:39:22.105Z,16.20
2022-08-07T10:42:09.875Z,16.20
2022-08-07T10:45:01.747Z,16.10
2022-08-07T10:47:52.775Z,16.10
2022-08-07T10:50:28.815Z,16.10
2022-08-07T10:53:11.408Z,16.00
2022-08-07T10:55:56.710Z,15.90
2022-08-07T10:59:01.099Z,15.90
2022-08-07T11:02:05.122Z,15.90
2022-08-07T11:04:58.978Z,15.90
2022-08-07T11:07:59.424Z,15.90
2022-08-07T11:10:38.221Z,15.90
2022-08-07T11:14:43.389Z,15.80
2022-08-07T11:16:19.934Z,15.80
2022-08-07T11:18:55.842Z,15.80
2022-08-07T11:21:43.111Z,15.80
2022-08-07T11:24:24.118Z,15.80
2022-08-07T11:27:01.272Z,15.70
2022-08-07T11:29:47.285Z,15.70
2022-08-07T11:32:27.394Z,15.70
2022-08-07T11:35:06.666Z,15.60
2022-08-07T11:38:12.356Z,15.50
2022-08-07T11:40:52.708Z,15.40
2022-08-07T11:43:29.520Z,15.40
2022-08-07T11:46:32.921Z,15.40
2022-08-07T11:50:11.384Z,15.40
2022-08-07T11:52:59.149Z,15.40
2022-08-07T11:56:09.274Z,15.40
2022-08-07T11:58:53.420Z,15.30
2022-08-07T12:01:59.042Z,15.30
2022-08-07T12:04:47.093Z,15.30
2022-08-07T12:07:38.685Z,15.30
2022-08-07T12:10:19.852Z,15.30
2022-08-07T12:13:02.887Z,15.30
2022-08-07T12:16:05.914Z,15.30
2022-08-07T12:18:45.182Z,15.20
2022-08-07T12:22:36.567Z,15.20
2022-08-07T12:24:37.718Z,15.20
2022-08-07T12:27:28.068Z,15.10
2022-08-07T12:30:13.204Z,15.10
2022-08-07T12:32:51.017Z,15.10
2022-08-07T12:35:24.242Z,15.10
2022-08-07T12:38:09.355Z,15.00
2022-08-07T12:40:47.375Z,15.00
2022-08-07T12:44:02.349Z,15.00
2022-08-07T12:46:32.400Z,15.00
2022-08-07T12:49:25.408Z,14.90
2022-08-07T12:52:13.785Z,14.90
2022-08-07T12:55:05.263Z,14.80
2022-08-07T12:58:01.163Z,14.80
2022-08-07T13:00:50.455Z,14.90
2022-08-07T13:04:02.224Z,14.90
2022-08-07T13:07:01.594Z,14.90
2022-08-07T13:10:28.730Z,14.90
2022-08-07T13:13:49.095Z,14.90
2022-08-07T13:16:19.619Z,15.00
2022-08-07T13:19:00.434Z,15.00
2022-08-07T13:21:51.726Z,14.90
2022-08-07T13:24:31.102Z,14.90
2022-08-07T13:27:12.844Z,14.90
2022-08-07T13:29:55.489Z,14.90
2022-08-07T13:32:37.399Z,14.90
2022-08-07T13:35:15.776Z,14.90
2022-08-07T13:38:02.237Z,15.00
2022-08-07T13:40:42.142Z,15.00
2022-08-07T13:43:18.663Z,15.00
2022-08-07T13:46:11.415Z,15.00
2022-08-07T13:48:59.412Z,15.00
2022-08-07T13:52:16.382Z,15.10
2022-08-07T13:54:33.634Z,15.10
2022-08-07T13:57:10.956Z,15.10
2022-08-07T13:59:57.169Z,15.20
2022-08-07T14:02:39.478Z,15.20
2022-08-07T14:05:18.510Z,15.20
2022-08-07T14:07:59.538Z,15.20
2022-08-07T14:10:42.024Z,15.30
2022-08-07T14:13:18.011Z,15.30
2022-08-07T14:15:58.609Z,15.40
2022-08-07T14:18:34.975Z,15.40
2022-08-07T14:22:01.089Z,15.50
2022-08-07T14:24:10.607Z,15.50
2022-08-07T14:26:50.397Z,15.60
2022-08-07T14:30:07.313Z,15.70
2022-08-07T14:32:24.948Z,15.70
2022-08-07T14:34:58.882Z,15.80
2022-08-07T14:37:36.260Z,15.90
2022-08-07T14:40:26.683Z,16.00
2022-08-07T14:43:57.321Z,16.10
2022-08-07T14:46:09.172Z,16.20
2022-08-07T14:48:45.269Z,16.30
2022-08-07T14:52:04.199Z,16.40
2022-08-07T14:54:30.896Z,16.50
2022-08-07T14:57:08.706Z,16.60
2022-08-07T15:02:39.429Z,16.90
2022-08-07T15:05:20.607Z,17.30
2022-08-07T15:07:56.047Z,17.60
2022-08-07T15:10:30.628Z,17.90
2022-08-07T15:13:12.341Z,18.10
2022-08-07T15:15:53.270Z,18.30
2022-08-07T15:18:35.836Z,18.30
2022-08-07T15:21:58.856Z,18.30
2022-08-07T15:27:09.278Z,18.40
2022-08-07T15:38:30.925Z,18.70
2022-08-07T15:42:42.088Z,18.80
2022-08-07T15:44:08.008Z,18.80
2022-08-07T15:50:04.858Z,19.00
2022-08-07T15:52:31.366Z,19.10
2022-08-07T15:55:11.618Z,19.20
2022-08-07T15:57:49.446Z,19.30
2022-08-07T16:00:33.462Z,19.30
2022-08-07T16:03:21.582Z,19.40
2022-08-07T16:06:08.238Z,19.40
2022-08-07T16:08:45.953Z,19.50
2022-08-07T16:11:40.108Z,19.50
2022-08-07T16:14:19.324Z,19.70
2022-08-07T16:17:13.096Z,19.80
2022-08-07T16:20:05.948Z,19.90
2022-08-07T16:22:56.827Z,20.10
2022-08-07T16:25:55.035Z,20.20
2022-08-07T16:30:07.195Z,20.20
2022-08-07T16:32:03.815Z,20.40
2022-08-07T16:34:53.704Z,20.50
2022-08-07T16:38:05.759Z,20.70
2022-08-07T16:41:07.242Z,20.80
2022-08-07T16:44:04.149Z,20.90
2022-08-07T16:47:25.183Z,21.00
2022-08-07T16:50:38.724Z,21.20
2022-08-07T16:53:57.275Z,21.40
2022-08-07T16:56:42.983Z,21.50
2022-08-07T16:59:46.845Z,21.70
2022-08-07T17:02:54.246Z,21.80
2022-08-07T17:06:02.119Z,22.00
2022-08-07T17:09:09.746Z,22.10
2022-08-07T17:12:04.206Z,22.30
2022-08-07T17:14:49.919Z,22.40
2022-08-07T17:17:44.523Z,22.50
2022-08-07T17:20:33.310Z,22.70
2022-08-07T17:23:22.212Z,22.80
2022-08-07T17:26:23.603Z,23.00
2022-08-07T17:30:12.697Z,23.00
2022-08-07T17:32:30.843Z,23.20
2022-08-07T17:35:51.268Z,23.30
2022-08-07T17:38:33.349Z,23.40
2022-08-07T17:42:00.964Z,23.60
2022-08-07T17:44:14.701Z,23.70
2022-08-07T17:47:08.402Z,23.90
2022-08-07T17:49:45.394Z,24.00
2022-08-07T17:52:30.678Z,24.10
2022-08-07T17:55:12.791Z,24.10
2022-08-07T17:58:01.691Z,24.20
2022-08-07T18:00:48.843Z,24.20
2022-08-07T18:03:27.677Z,24.30
2022-08-07T18:06:09.281Z,24.40
2022-08-07T18:09:02.229Z,24.50
2022-08-07T18:12:16.352Z,24.60
2022-08-07T18:14:46.801Z,24.70
2022-08-07T18:18:39.715Z,24.80
2022-08-07T18:21:03.288Z,24.90
2022-08-07T18:23:43.747Z,25.10
2022-08-07T18:26:27.909Z,25.20
2022-08-07T18:30:07.718Z,25.40
2022-08-07T18:32:20.417Z,25.50
2022-08-07T18:35:13.189Z,25.50
2022-08-07T18:38:56.300Z,25.70
2022-08-07T18:41:17.156Z,25.80
2022-08-07T18:44:02.060Z,25.90
2022-08-07T18:46:46.351Z,25.90
2022-08-07T18:50:30.173Z,25.60
2022-08-07T18:52:55.124Z,25.60
2022-08-07T18:55:55.902Z,25.50
2022-08-07T18:58:51.486Z,25.40
2022-08-07T19:02:32.623Z,25.50
2022-08-07T19:04:56.212Z,25.60
2022-08-07T19:07:51.594Z,25.70
2022-08-07T19:10:51.732Z,25.80
2022-08-07T19:13:29.749Z,26.00
2022-08-07T19:17:05.086Z,26.10
2022-08-07T19:19:13.142Z,26.10
2022-08-07T19:22:04.750Z,26.20
2022-08-07T19:24:48.052Z,26.30
2022-08-07T19:28:57.599Z,26.40
2022-08-07T19:30:56.747Z,26.50
2022-08-07T19:33:15.388Z,26.70
2022-08-07T19:35:55.934Z,27.00
2022-08-07T19:38:36.266Z,27.20
2022-08-07T19:41:44.327Z,27.10
2022-08-07T19:44:21.739Z,27.10
2022-08-07T19:46:59.177Z,27.10
2022-08-07T19:49:57.803Z,27.20
2022-08-07T19:52:28.092Z,27.40
2022-08-07T19:55:04.241Z,27.60
2022-08-07T19:58:02.227Z,27.60
2022-08-07T20:00:39.548Z,27.80
2022-08-07T20:03:37.312Z,27.90
2022-08-07T20:06:15.244Z,27.80
2022-08-07T20:09:03.076Z,27.90
2022-08-07T20:12:23.006Z,28.30
2022-08-07T20:14:53.762Z,28.20
2022-08-07T20:17:35.872Z,28.20
2022-08-07T20:20:12.818Z,28.40
2022-08-07T20:22:51.924Z,28.60
2022-08-07T20:25:25.811Z,28.70
2022-08-07T20:28:03.413Z,28.90
2022-08-07T20:30:38.242Z,29.10
2022-08-07T20:33:24.516Z,29.30
2022-08-07T20:36:05.116Z,29.40
2022-08-07T20:38:53.375Z,29.50
2022-08-07T20:41:38.419Z,29.60
2022-08-07T20:44:14.886Z,29.60
2022-08-07T20:47:04.278Z,29.60
2022-08-07T20:50:00.042Z,29.60
2022-08-07T20:52:51.062Z,29.70
2022-08-07T20:55:26.565Z,29.70
2022-08-07T20:58:02.268Z,29.90
2022-08-07T21:00:45.342Z,30.20
2022-08-07T21:03:23.201Z,30.40
2022-08-07T21:06:04.428Z,30.60
2022-08-07T21:09:02.694Z,30.70
2022-08-07T21:11:51.159Z,30.90
2022-08-07T21:14:34.216Z,31.00
2022-08-07T21:18:03.913Z,31.10
2022-08-07T21:20:09.832Z,31.10
2022-08-07T21:22:53.282Z,31.10
2022-08-07T21:25:30.461Z,31.00
2022-08-07T21:28:19.084Z,31.10
2022-08-07T21:31:31.363Z,31.30
2022-08-07T21:34:19.885Z,31.30
2022-08-07T21:36:59.301Z,31.30
2022-08-07T21:39:45.973Z,31.50
2022-08-07T21:42:46.547Z,31.70
2022-08-07T21:46:07.643Z,31.70
2022-08-07T21:48:33.336Z,31.80
2022-08-07T21:51:19.745Z,31.80
2022-08-07T21:53:59.333Z,31.80
2022-08-07T21:56:47.829Z,31.90
2022-08-07T22:00:05.394Z,32.00
2022-08-07T22:02:46.973Z,32.10
2022-08-07T22:05:45.710Z,32.30
2022-08-07T22:08:21.056Z,32.40
2022-08-07T22:10:58.526Z,32.40
2022-08-07T22:13:51.943Z,32.50
2022-08-07T22:16:44.321Z,32.50
2022-08-07T22:19:31.970Z,32.70
2022-08-07T22:22:18.141Z,32.80
2022-08-07T22:25:12.105Z,32.90
2022-08-07T22:28:20.079Z,33.00
2022-08-07T22:31:00.460Z,33.20
2022-08-07T22:33:57.434Z,33.20
2022-08-07T22:36:46.426Z,33.20
2022-08-07T22:39:26.689Z,33.40
2022-08-07T22:42:19.415Z,33.50
2022-08-07T22:44:58.798Z,33.80
2022-08-07T22:48:02.842Z,33.90
2022-08-07T22:50:51.325Z,33.80
2022-08-07T22:54:08.236Z,33.90
2022-08-07T22:56:49.445Z,33.80
2022-08-07T22:59:52.136Z,34.10
2022-08-07T23:02:42.924Z,34.20
2022-08-07T23:06:08.220Z,34.40
2022-08-07T23:08:56.002Z,34.30
2022-08-07T23:11:45.856Z,34.30
2022-08-07T23:14:45.929Z,34.20
2022-08-07T23:17:41.526Z,34.00
2022-08-07T23:20:51.744Z,34.00
2022-08-07T23:24:04.108Z,34.20
2022-08-07T23:27:01.896Z,34.30
2022-08-07T23:30:37.094Z,34.10
2022-08-07T23:34:23.297Z,34.30
2022-08-07T23:36:34.343Z,34.50
2022-08-07T23:39:16.033Z,34.50
2022-08-07T23:42:15.659Z,34.60
2022-08-07T23:45:33.554Z,34.50
2022-08-07T23:48:27.347Z,34.50
2022-08-07T23:51:03.011Z,34.40
2022-08-07T23:53:51.221Z,34.50
2022-08-07T23:56:28.192Z,34.50
2022-08-07T23:59:10.181Z,34.50
